sensor_id;sensor_type;location;lat;lon;timestamp;P1;durP1;ratioP1;P2;durP2;ratioP2
26516;SDS011;14190;51.342;6.338;2022-12-11T00:02:28;145.50;;;42.80;;
26516;SDS011;14190;51.342;6.338;2022-12-11T00:04:56;143.32;;;38.42;;
26516;SDS011;14190;51.342;6.338;2022-12-11T00:07:23;160.70;;;40.15;;
26516;SDS011;14190;51.342;6.338;2022-12-11T00:09:51;169.70;;;42.27;;
26516;SDS011;14190;51.342;6.338;2022-12-11T00:12:19;171.30;;;41.40;;
26516;SDS011;14190;51.342;6.338;2022-12-11T00:14:46;153.32;;;39.67;;
26516;SDS011;14190;51.342;6.338;2022-12-11T00:17:13;150.18;;;39.55;;
26516;SDS011;14190;51.342;6.338;2022-12-11T00:19:41;158.87;;;42.58;;
26516;SDS011;14190;51.342;6.338;2022-12-11T00:22:08;157.00;;;40.48;;
26516;SDS011;14190;51.342;6.338;2022-12-11T00:24:36;148.30;;;39.80;;
26516;SDS011;14190;51.342;6.338;2022-12-11T00:27:03;174.80;;;43.23;;
26516;SDS011;14190;51.342;6.338;2022-12-11T00:29:30;154.20;;;41.65;;
26516;SDS011;14190;51.342;6.338;2022-12-11T00:31:58;169.43;;;43.13;;
26516;SDS011;14190;51.342;6.338;2022-12-11T00:34:25;149.45;;;39.90;;
26516;SDS011;14190;51.342;6.338;2022-12-11T00:36:52;178.27;;;42.33;;
26516;SDS011;14190;51.342;6.338;2022-12-11T00:39:20;174.42;;;41.85;;
26516;SDS011;14190;51.342;6.338;2022-12-11T00:41:47;184.70;;;43.40;;
26516;SDS011;14190;51.342;6.338;2022-12-11T00:44:15;176.65;;;43.38;;
26516;SDS011;14190;51.342;6.338;2022-12-11T00:46:42;169.25;;;44.27;;
26516;SDS011;14190;51.342;6.338;2022-12-11T00:49:09;166.32;;;43.68;;
26516;SDS011;14190;51.342;6.338;2022-12-11T00:51:37;167.03;;;42.35;;
26516;SDS011;14190;51.342;6.338;2022-12-11T00:54:04;152.07;;;42.33;;
26516;SDS011;14190;51.342;6.338;2022-12-11T00:56:32;164.03;;;44.48;;
26516;SDS011;14190;51.342;6.338;2022-12-11T00:59:00;188.22;;;45.75;;
26516;SDS011;14190;51.342;6.338;2022-12-11T01:01:27;168.93;;;41.75;;
26516;SDS011;14190;51.342;6.338;2022-12-11T01:03:55;160.85;;;42.20;;
26516;SDS011;14190;51.342;6.338;2022-12-11T01:06:23;155.87;;;43.23;;
26516;SDS011;14190;51.342;6.338;2022-12-11T01:08:50;167.00;;;42.70;;
26516;SDS011;14190;51.342;6.338;2022-12-11T01:11:20;113.27;;;30.43;;
26516;SDS011;14190;51.342;6.338;2022-12-11T01:13:47;147.60;;;41.15;;
26516;SDS011;14190;51.342;6.338;2022-12-11T01:16:14;147.07;;;41.37;;
26516;SDS011;14190;51.342;6.338;2022-12-11T01:18:42;143.45;;;42.17;;
26516;SDS011;14190;51.342;6.338;2022-12-11T01:21:11;145.40;;;42.23;;
26516;SDS011;14190;51.342;6.338;2022-12-11T01:23:39;156.93;;;42.80;;
26516;SDS011;14190;51.342;6.338;2022-12-11T01:26:10;152.90;;;43.38;;
26516;SDS011;14190;51.342;6.338;2022-12-11T01:28:38;141.05;;;44.50;;
26516;SDS011;14190;51.342;6.338;2022-12-11T01:31:07;146.70;;;44.00;;
26516;SDS011;14190;51.342;6.338;2022-12-11T01:33:35;148.02;;;41.95;;
26516;SDS011;14190;51.342;6.338;2022-12-11T01:36:09;144.50;;;41.37;;
26516;SDS011;14190;51.342;6.338;2022-12-11T01:38:36;136.47;;;40.00;;
26516;SDS011;14190;51.342;6.338;2022-12-11T01:41:04;128.70;;;39.20;;
26516;SDS011;14190;51.342;6.338;2022-12-11T01:43:31;130.00;;;41.48;;
26516;SDS011;14190;51.342;6.338;2022-12-11T01:45:59;134.05;;;41.90;;
26516;SDS011;14190;51.342;6.338;2022-12-11T01:48:27;127.12;;;41.40;;
26516;SDS011;14190;51.342;6.338;2022-12-11T01:50:57;131.10;;;41.18;;
26516;SDS011;14190;51.342;6.338;2022-12-11T01:53:32;126.10;;;39.70;;
26516;SDS011;14190;51.342;6.338;2022-12-11T01:55:56;127.12;;;39.25;;
26516;SDS011;14190;51.342;6.338;2022-12-11T01:58:26;117.72;;;36.80;;
26516;SDS011;14190;51.342;6.338;2022-12-11T02:00:53;123.07;;;40.55;;
26516;SDS011;14190;51.342;6.338;2022-12-11T02:03:22;136.82;;;39.80;;
26516;SDS011;14190;51.342;6.338;2022-12-11T02:05:49;127.47;;;39.78;;
26516;SDS011;14190;51.342;6.338;2022-12-11T02:08:17;118.95;;;38.23;;
26516;SDS011;14190;51.342;6.338;2022-12-11T02:13:20;123.22;;;38.78;;
26516;SDS011;14190;51.342;6.338;2022-12-11T02:15:47;125.72;;;39.90;;
26516;SDS011;14190;51.342;6.338;2022-12-11T02:18:36;133.25;;;40.75;;
26516;SDS011;14190;51.342;6.338;2022-12-11T02:20:53;118.30;;;39.15;;
26516;SDS011;14190;51.342;6.338;2022-12-11T02:26:04;126.70;;;39.98;;
26516;SDS011;14190;51.342;6.338;2022-12-11T02:28:20;120.90;;;37.70;;
26516;SDS011;14190;51.342;6.338;2022-12-11T02:30:49;115.80;;;37.73;;
26516;SDS011;14190;51.342;6.338;2022-12-11T02:33:17;128.32;;;39.20;;
26516;SDS011;14190;51.342;6.338;2022-12-11T02:35:45;116.70;;;38.73;;
26516;SDS011;14190;51.342;6.338;2022-12-11T02:38:14;118.60;;;37.73;;
26516;SDS011;14190;51.342;6.338;2022-12-11T02:40:43;120.97;;;38.17;;
26516;SDS011;14190;51.342;6.338;2022-12-11T02:43:12;114.32;;;38.88;;
26516;SDS011;14190;51.342;6.338;2022-12-11T02:45:40;112.88;;;36.75;;
26516;SDS011;14190;51.342;6.338;2022-12-11T02:48:08;124.12;;;38.70;;
26516;SDS011;14190;51.342;6.338;2022-12-11T02:50:37;107.12;;;35.52;;
26516;SDS011;14190;51.342;6.338;2022-12-11T02:53:05;108.35;;;36.90;;
26516;SDS011;14190;51.342;6.338;2022-12-11T02:55:33;106.83;;;35.60;;
26516;SDS011;14190;51.342;6.338;2022-12-11T02:58:12;110.63;;;34.93;;
26516;SDS011;14190;51.342;6.338;2022-12-11T03:00:37;108.60;;;35.63;;
26516;SDS011;14190;51.342;6.338;2022-12-11T03:03:05;100.95;;;35.10;;
26516;SDS011;14190;51.342;6.338;2022-12-11T03:05:32;96.57;;;36.13;;
26516;SDS011;14190;51.342;6.338;2022-12-11T03:08:00;89.30;;;33.88;;
26516;SDS011;14190;51.342;6.338;2022-12-11T03:10:28;95.72;;;33.23;;
26516;SDS011;14190;51.342;6.338;2022-12-11T03:12:56;93.37;;;34.18;;
26516;SDS011;14190;51.342;6.338;2022-12-11T03:15:32;83.10;;;34.53;;
26516;SDS011;14190;51.342;6.338;2022-12-11T03:18:08;92.50;;;32.40;;
26516;SDS011;14190;51.342;6.338;2022-12-11T03:20:38;89.45;;;35.63;;
26516;SDS011;14190;51.342;6.338;2022-12-11T03:25:46;90.12;;;33.08;;
26516;SDS011;14190;51.342;6.338;2022-12-11T03:28:14;89.75;;;33.18;;
26516;SDS011;14190;51.342;6.338;2022-12-11T03:30:41;98.58;;;34.83;;
26516;SDS011;14190;51.342;6.338;2022-12-11T03:33:10;86.97;;;32.70;;
26516;SDS011;14190;51.342;6.338;2022-12-11T03:35:42;87.02;;;32.65;;
26516;SDS011;14190;51.342;6.338;2022-12-11T03:38:11;80.92;;;31.75;;
26516;SDS011;14190;51.342;6.338;2022-12-11T03:40:39;82.62;;;31.30;;
26516;SDS011;14190;51.342;6.338;2022-12-11T03:43:08;84.58;;;31.85;;
26516;SDS011;14190;51.342;6.338;2022-12-11T03:45:37;89.42;;;32.30;;
26516;SDS011;14190;51.342;6.338;2022-12-11T03:48:05;72.32;;;30.35;;
26516;SDS011;14190;51.342;6.338;2022-12-11T03:50:34;74.20;;;30.92;;
26516;SDS011;14190;51.342;6.338;2022-12-11T03:53:02;85.32;;;30.72;;
26516;SDS011;14190;51.342;6.338;2022-12-11T03:55:31;87.37;;;33.70;;
26516;SDS011;14190;51.342;6.338;2022-12-11T03:57:59;82.05;;;32.23;;
26516;SDS011;14190;51.342;6.338;2022-12-11T04:00:26;79.15;;;31.05;;
26516;SDS011;14190;51.342;6.338;2022-12-11T04:02:54;84.70;;;32.25;;
26516;SDS011;14190;51.342;6.338;2022-12-11T04:05:44;76.35;;;31.05;;
26516;SDS011;14190;51.342;6.338;2022-12-11T04:08:12;81.95;;;33.18;;
26516;SDS011;14190;51.342;6.338;2022-12-11T04:10:39;77.90;;;31.65;;
26516;SDS011;14190;51.342;6.338;2022-12-11T04:13:07;83.40;;;33.20;;
26516;SDS011;14190;51.342;6.338;2022-12-11T04:15:35;93.45;;;33.78;;
26516;SDS011;14190;51.342;6.338;2022-12-11T04:18:02;97.15;;;36.35;;
26516;SDS011;14190;51.342;6.338;2022-12-11T04:20:48;90.38;;;35.08;;
26516;SDS011;14190;51.342;6.338;2022-12-11T04:23:35;89.97;;;35.78;;
26516;SDS011;14190;51.342;6.338;2022-12-11T04:26:21;92.30;;;34.90;;
26516;SDS011;14190;51.342;6.338;2022-12-11T04:28:48;101.02;;;36.75;;
26516;SDS011;14190;51.342;6.338;2022-12-11T04:31:18;98.80;;;35.95;;
26516;SDS011;14190;51.342;6.338;2022-12-11T04:33:45;101.90;;;39.00;;
26516;SDS011;14190;51.342;6.338;2022-12-11T04:36:12;101.30;;;37.63;;
26516;SDS011;14190;51.342;6.338;2022-12-11T04:38:39;91.92;;;36.13;;
26516;SDS011;14190;51.342;6.338;2022-12-11T04:41:08;99.32;;;36.63;;
26516;SDS011;14190;51.342;6.338;2022-12-11T04:43:35;104.20;;;38.92;;
26516;SDS011;14190;51.342;6.338;2022-12-11T04:46:03;97.55;;;39.45;;
26516;SDS011;14190;51.342;6.338;2022-12-11T04:48:31;92.42;;;38.28;;
26516;SDS011;14190;51.342;6.338;2022-12-11T04:50:59;97.15;;;36.35;;
26516;SDS011;14190;51.342;6.338;2022-12-11T04:53:26;93.20;;;36.03;;
26516;SDS011;14190;51.342;6.338;2022-12-11T04:55:54;106.60;;;39.48;;
26516;SDS011;14190;51.342;6.338;2022-12-11T04:58:22;106.05;;;38.25;;
26516;SDS011;14190;51.342;6.338;2022-12-11T05:00:50;98.33;;;37.60;;
26516;SDS011;14190;51.342;6.338;2022-12-11T05:03:17;102.12;;;38.40;;
26516;SDS011;14190;51.342;6.338;2022-12-11T05:05:48;103.90;;;38.17;;
26516;SDS011;14190;51.342;6.338;2022-12-11T05:08:17;98.20;;;38.42;;
26516;SDS011;14190;51.342;6.338;2022-12-11T05:10:44;96.05;;;36.58;;
26516;SDS011;14190;51.342;6.338;2022-12-11T05:13:11;94.17;;;36.70;;
26516;SDS011;14190;51.342;6.338;2022-12-11T05:15:39;101.58;;;37.30;;
26516;SDS011;14190;51.342;6.338;2022-12-11T05:18:06;105.27;;;39.38;;
26516;SDS011;14190;51.342;6.338;2022-12-11T05:20:34;95.53;;;37.65;;
26516;SDS011;14190;51.342;6.338;2022-12-11T05:23:01;103.22;;;38.40;;
26516;SDS011;14190;51.342;6.338;2022-12-11T05:25:29;99.77;;;37.67;;
26516;SDS011;14190;51.342;6.338;2022-12-11T05:27:56;102.07;;;38.88;;
26516;SDS011;14190;51.342;6.338;2022-12-11T05:30:24;91.05;;;35.75;;
26516;SDS011;14190;51.342;6.338;2022-12-11T05:32:51;94.40;;;37.60;;
26516;SDS011;14190;51.342;6.338;2022-12-11T05:35:19;89.15;;;36.30;;
26516;SDS011;14190;51.342;6.338;2022-12-11T05:37:46;87.78;;;32.75;;
26516;SDS011;14190;51.342;6.338;2022-12-11T05:40:14;85.95;;;34.10;;
26516;SDS011;14190;51.342;6.338;2022-12-11T05:42:41;93.37;;;34.48;;
26516;SDS011;14190;51.342;6.338;2022-12-11T05:45:09;86.55;;;33.60;;
26516;SDS011;14190;51.342;6.338;2022-12-11T05:47:36;85.72;;;34.43;;
26516;SDS011;14190;51.342;6.338;2022-12-11T05:50:03;84.58;;;34.33;;
26516;SDS011;14190;51.342;6.338;2022-12-11T05:52:31;93.52;;;36.73;;
26516;SDS011;14190;51.342;6.338;2022-12-11T05:54:58;80.57;;;31.27;;
26516;SDS011;14190;51.342;6.338;2022-12-11T05:57:26;79.87;;;31.70;;
26516;SDS011;14190;51.342;6.338;2022-12-11T05:59:53;80.50;;;32.30;;
26516;SDS011;14190;51.342;6.338;2022-12-11T06:02:20;90.03;;;33.65;;
26516;SDS011;14190;51.342;6.338;2022-12-11T06:04:48;88.37;;;33.50;;
26516;SDS011;14190;51.342;6.338;2022-12-11T06:07:15;83.42;;;33.53;;
26516;SDS011;14190;51.342;6.338;2022-12-11T06:09:42;77.82;;;32.42;;
26516;SDS011;14190;51.342;6.338;2022-12-11T06:12:10;77.82;;;33.00;;
26516;SDS011;14190;51.342;6.338;2022-12-11T06:14:37;70.97;;;30.10;;
26516;SDS011;14190;51.342;6.338;2022-12-11T06:17:06;81.80;;;31.85;;
26516;SDS011;14190;51.342;6.338;2022-12-11T06:19:33;76.53;;;30.32;;
26516;SDS011;14190;51.342;6.338;2022-12-11T06:22:01;76.47;;;30.48;;
26516;SDS011;14190;51.342;6.338;2022-12-11T06:24:28;80.32;;;33.40;;
26516;SDS011;14190;51.342;6.338;2022-12-11T06:26:55;74.72;;;30.23;;
26516;SDS011;14190;51.342;6.338;2022-12-11T06:29:23;70.72;;;31.15;;
26516;SDS011;14190;51.342;6.338;2022-12-11T06:31:51;74.60;;;30.82;;
26516;SDS011;14190;51.342;6.338;2022-12-11T06:34:18;69.92;;;31.62;;
26516;SDS011;14190;51.342;6.338;2022-12-11T06:36:45;82.78;;;31.48;;
26516;SDS011;14190;51.342;6.338;2022-12-11T06:39:13;67.92;;;28.83;;
26516;SDS011;14190;51.342;6.338;2022-12-11T06:41:40;81.02;;;32.42;;
26516;SDS011;14190;51.342;6.338;2022-12-11T06:44:07;76.00;;;30.15;;
26516;SDS011;14190;51.342;6.338;2022-12-11T06:46:35;71.70;;;31.10;;
26516;SDS011;14190;51.342;6.338;2022-12-11T06:49:02;71.87;;;28.67;;
26516;SDS011;14190;51.342;6.338;2022-12-11T06:51:29;74.40;;;29.32;;
26516;SDS011;14190;51.342;6.338;2022-12-11T06:53:58;68.52;;;28.17;;
26516;SDS011;14190;51.342;6.338;2022-12-11T06:56:25;67.97;;;29.15;;
26516;SDS011;14190;51.342;6.338;2022-12-11T06:58:53;74.32;;;30.17;;
26516;SDS011;14190;51.342;6.338;2022-12-11T07:01:27;69.15;;;31.42;;
26516;SDS011;14190;51.342;6.338;2022-12-11T07:03:51;69.87;;;27.60;;
26516;SDS011;14190;51.342;6.338;2022-12-11T07:06:19;72.47;;;28.42;;
26516;SDS011;14190;51.342;6.338;2022-12-11T07:08:46;63.00;;;28.02;;
26516;SDS011;14190;51.342;6.338;2022-12-11T07:11:14;65.65;;;27.70;;
26516;SDS011;14190;51.342;6.338;2022-12-11T07:13:42;64.85;;;27.35;;
26516;SDS011;14190;51.342;6.338;2022-12-11T07:16:10;59.05;;;26.87;;
26516;SDS011;14190;51.342;6.338;2022-12-11T07:18:39;67.65;;;26.00;;
26516;SDS011;14190;51.342;6.338;2022-12-11T07:21:07;64.30;;;26.73;;
26516;SDS011;14190;51.342;6.338;2022-12-11T07:23:35;56.18;;;25.95;;
26516;SDS011;14190;51.342;6.338;2022-12-11T07:26:03;64.07;;;26.85;;
26516;SDS011;14190;51.342;6.338;2022-12-11T07:28:31;58.23;;;26.10;;
26516;SDS011;14190;51.342;6.338;2022-12-11T07:31:11;65.78;;;26.10;;
26516;SDS011;14190;51.342;6.338;2022-12-11T07:33:29;58.60;;;26.45;;
26516;SDS011;14190;51.342;6.338;2022-12-11T07:35:59;58.13;;;25.40;;
26516;SDS011;14190;51.342;6.338;2022-12-11T07:38:25;63.38;;;25.97;;
26516;SDS011;14190;51.342;6.338;2022-12-11T07:40:52;54.27;;;25.45;;
26516;SDS011;14190;51.342;6.338;2022-12-11T07:43:19;55.75;;;26.12;;
26516;SDS011;14190;51.342;6.338;2022-12-11T07:45:47;51.20;;;24.00;;
26516;SDS011;14190;51.342;6.338;2022-12-11T07:48:14;53.50;;;26.02;;
26516;SDS011;14190;51.342;6.338;2022-12-11T07:50:42;50.90;;;24.52;;
26516;SDS011;14190;51.342;6.338;2022-12-11T07:53:09;50.78;;;22.73;;
26516;SDS011;14190;51.342;6.338;2022-12-11T07:55:36;49.90;;;26.15;;
26516;SDS011;14190;51.342;6.338;2022-12-11T07:58:04;46.75;;;23.87;;
26516;SDS011;14190;51.342;6.338;2022-12-11T08:00:31;51.63;;;24.27;;
26516;SDS011;14190;51.342;6.338;2022-12-11T08:02:59;45.60;;;22.65;;
26516;SDS011;14190;51.342;6.338;2022-12-11T08:05:26;45.95;;;23.45;;
26516;SDS011;14190;51.342;6.338;2022-12-11T08:07:53;44.80;;;21.70;;
26516;SDS011;14190;51.342;6.338;2022-12-11T08:10:21;44.08;;;22.60;;
26516;SDS011;14190;51.342;6.338;2022-12-11T08:12:48;42.88;;;21.55;;
26516;SDS011;14190;51.342;6.338;2022-12-11T08:15:16;44.53;;;20.97;;
26516;SDS011;14190;51.342;6.338;2022-12-11T08:17:43;46.92;;;21.17;;
26516;SDS011;14190;51.342;6.338;2022-12-11T08:20:11;39.05;;;20.68;;
26516;SDS011;14190;51.342;6.338;2022-12-11T08:22:38;41.95;;;21.00;;
26516;SDS011;14190;51.342;6.338;2022-12-11T08:25:05;41.45;;;20.95;;
26516;SDS011;14190;51.342;6.338;2022-12-11T08:27:33;39.27;;;20.52;;
26516;SDS011;14190;51.342;6.338;2022-12-11T08:30:00;39.50;;;20.10;;
26516;SDS011;14190;51.342;6.338;2022-12-11T08:32:28;41.65;;;20.23;;
26516;SDS011;14190;51.342;6.338;2022-12-11T08:34:55;38.28;;;18.50;;
26516;SDS011;14190;51.342;6.338;2022-12-11T08:37:23;47.90;;;22.13;;
26516;SDS011;14190;51.342;6.338;2022-12-11T08:39:50;35.92;;;18.57;;
26516;SDS011;14190;51.342;6.338;2022-12-11T08:42:17;42.88;;;21.12;;
26516;SDS011;14190;51.342;6.338;2022-12-11T08:44:45;41.98;;;19.82;;
26516;SDS011;14190;51.342;6.338;2022-12-11T08:47:12;34.25;;;19.20;;
26516;SDS011;14190;51.342;6.338;2022-12-11T08:49:40;36.50;;;17.52;;
26516;SDS011;14190;51.342;6.338;2022-12-11T08:52:08;38.42;;;18.98;;
26516;SDS011;14190;51.342;6.338;2022-12-11T08:54:36;49.15;;;19.00;;
26516;SDS011;14190;51.342;6.338;2022-12-11T08:57:03;38.38;;;18.27;;
26516;SDS011;14190;51.342;6.338;2022-12-11T08:59:30;35.43;;;18.35;;
26516;SDS011;14190;51.342;6.338;2022-12-11T09:01:58;38.10;;;19.90;;
26516;SDS011;14190;51.342;6.338;2022-12-11T09:04:25;39.73;;;18.90;;
26516;SDS011;14190;51.342;6.338;2022-12-11T09:06:53;42.10;;;19.27;;
26516;SDS011;14190;51.342;6.338;2022-12-11T09:09:20;41.60;;;19.32;;
26516;SDS011;14190;51.342;6.338;2022-12-11T09:11:47;52.25;;;22.32;;
26516;SDS011;14190;51.342;6.338;2022-12-11T09:14:15;43.50;;;20.05;;
26516;SDS011;14190;51.342;6.338;2022-12-11T09:16:42;40.40;;;20.00;;
26516;SDS011;14190;51.342;6.338;2022-12-11T09:19:10;37.93;;;18.82;;
26516;SDS011;14190;51.342;6.338;2022-12-11T09:21:39;39.58;;;18.40;;
26516;SDS011;14190;51.342;6.338;2022-12-11T09:24:07;39.33;;;19.27;;
26516;SDS011;14190;51.342;6.338;2022-12-11T09:26:35;39.25;;;18.02;;
26516;SDS011;14190;51.342;6.338;2022-12-11T09:29:03;41.15;;;19.75;;
26516;SDS011;14190;51.342;6.338;2022-12-11T09:31:33;40.40;;;19.30;;
26516;SDS011;14190;51.342;6.338;2022-12-11T09:34:01;40.48;;;19.82;;
26516;SDS011;14190;51.342;6.338;2022-12-11T09:36:29;40.52;;;19.70;;
26516;SDS011;14190;51.342;6.338;2022-12-11T09:39:05;39.78;;;19.73;;
26516;SDS011;14190;51.342;6.338;2022-12-11T09:41:34;35.75;;;19.48;;
26516;SDS011;14190;51.342;6.338;2022-12-11T09:44:01;46.40;;;22.83;;
26516;SDS011;14190;51.342;6.338;2022-12-11T09:46:27;36.53;;;19.62;;
26516;SDS011;14190;51.342;6.338;2022-12-11T09:48:54;37.75;;;20.37;;
26516;SDS011;14190;51.342;6.338;2022-12-11T09:51:41;43.68;;;19.98;;
26516;SDS011;14190;51.342;6.338;2022-12-11T09:54:10;39.25;;;22.48;;
26516;SDS011;14190;51.342;6.338;2022-12-11T09:56:44;44.38;;;21.35;;
26516;SDS011;14190;51.342;6.338;2022-12-11T09:59:20;43.13;;;22.52;;
26516;SDS011;14190;51.342;6.338;2022-12-11T10:17:20;38.85;;;21.05;;
26516;SDS011;14190;51.342;6.338;2022-12-11T10:19:48;36.93;;;21.67;;
26516;SDS011;14190;51.342;6.338;2022-12-11T10:22:20;44.23;;;20.37;;
26516;SDS011;14190;51.342;6.338;2022-12-11T10:24:51;46.48;;;24.05;;
26516;SDS011;14190;51.342;6.338;2022-12-11T10:27:19;41.67;;;22.10;;
26516;SDS011;14190;51.342;6.338;2022-12-11T10:29:46;33.17;;;19.20;;
26516;SDS011;14190;51.342;6.338;2022-12-11T10:32:20;45.75;;;27.22;;
26516;SDS011;14190;51.342;6.338;2022-12-11T10:34:44;51.20;;;27.13;;
26516;SDS011;14190;51.342;6.338;2022-12-11T10:37:12;42.95;;;25.05;;
26516;SDS011;14190;51.342;6.338;2022-12-11T10:39:40;40.60;;;21.12;;
26516;SDS011;14190;51.342;6.338;2022-12-11T10:42:13;39.15;;;19.52;;
26516;SDS011;14190;51.342;6.338;2022-12-11T10:44:40;35.03;;;19.75;;
26516;SDS011;14190;51.342;6.338;2022-12-11T10:47:13;33.70;;;17.17;;
26516;SDS011;14190;51.342;6.338;2022-12-11T10:49:54;33.85;;;16.35;;
26516;SDS011;14190;51.342;6.338;2022-12-11T10:52:28;32.35;;;16.65;;
26516;SDS011;14190;51.342;6.338;2022-12-11T10:54:57;28.98;;;15.00;;
26516;SDS011;14190;51.342;6.338;2022-12-11T10:57:27;28.60;;;15.70;;
26516;SDS011;14190;51.342;6.338;2022-12-11T10:59:55;37.17;;;17.95;;
26516;SDS011;14190;51.342;6.338;2022-12-11T11:05:12;43.45;;;20.00;;
26516;SDS011;14190;51.342;6.338;2022-12-11T11:07:30;34.00;;;16.50;;
26516;SDS011;14190;51.342;6.338;2022-12-11T11:10:05;32.63;;;15.85;;
26516;SDS011;14190;51.342;6.338;2022-12-11T11:12:28;33.20;;;16.57;;
26516;SDS011;14190;51.342;6.338;2022-12-11T11:15:09;31.27;;;16.32;;
26516;SDS011;14190;51.342;6.338;2022-12-11T11:17:39;30.60;;;14.55;;
26516;SDS011;14190;51.342;6.338;2022-12-11T11:20:03;29.25;;;15.13;;
26516;SDS011;14190;51.342;6.338;2022-12-11T11:22:29;29.55;;;16.62;;
26516;SDS011;14190;51.342;6.338;2022-12-11T11:24:58;30.57;;;18.17;;
26516;SDS011;14190;51.342;6.338;2022-12-11T11:27:30;41.30;;;20.97;;
26516;SDS011;14190;51.342;6.338;2022-12-11T11:29:58;35.73;;;18.32;;
26516;SDS011;14190;51.342;6.338;2022-12-11T11:32:36;36.25;;;20.25;;
26516;SDS011;14190;51.342;6.338;2022-12-11T11:37:40;33.25;;;16.87;;
26516;SDS011;14190;51.342;6.338;2022-12-11T11:40:12;38.65;;;17.37;;
26516;SDS011;14190;51.342;6.338;2022-12-11T11:45:21;32.75;;;16.73;;
26516;SDS011;14190;51.342;6.338;2022-12-11T11:47:57;33.48;;;18.00;;
26516;SDS011;14190;51.342;6.338;2022-12-11T11:50:24;33.78;;;17.85;;
26516;SDS011;14190;51.342;6.338;2022-12-11T11:53:02;31.68;;;17.87;;
26516;SDS011;14190;51.342;6.338;2022-12-11T11:55:38;31.17;;;18.45;;
26516;SDS011;14190;51.342;6.338;2022-12-11T11:58:08;35.25;;;19.27;;
26516;SDS011;14190;51.342;6.338;2022-12-11T12:00:31;35.40;;;19.47;;
26516;SDS011;14190;51.342;6.338;2022-12-11T12:03:03;40.40;;;24.30;;
26516;SDS011;14190;51.342;6.338;2022-12-11T12:05:34;42.13;;;23.00;;
26516;SDS011;14190;51.342;6.338;2022-12-11T12:08:03;38.73;;;23.18;;
26516;SDS011;14190;51.342;6.338;2022-12-11T12:10:33;39.25;;;20.75;;
26516;SDS011;14190;51.342;6.338;2022-12-11T12:13:02;32.08;;;18.12;;
26516;SDS011;14190;51.342;6.338;2022-12-11T12:15:42;35.28;;;17.67;;
26516;SDS011;14190;51.342;6.338;2022-12-11T12:18:23;43.13;;;20.50;;
26516;SDS011;14190;51.342;6.338;2022-12-11T12:25:56;36.63;;;19.67;;
26516;SDS011;14190;51.342;6.338;2022-12-11T12:34:01;30.45;;;17.02;;
26516;SDS011;14190;51.342;6.338;2022-12-11T12:36:07;27.15;;;16.15;;
26516;SDS011;14190;51.342;6.338;2022-12-11T12:38:49;30.80;;;18.67;;
26516;SDS011;14190;51.342;6.338;2022-12-11T12:46:20;34.20;;;17.37;;
26516;SDS011;14190;51.342;6.338;2022-12-11T12:48:49;28.55;;;15.70;;
26516;SDS011;14190;51.342;6.338;2022-12-11T12:51:19;24.60;;;14.65;;
26516;SDS011;14190;51.342;6.338;2022-12-11T12:53:51;30.17;;;16.90;;
26516;SDS011;14190;51.342;6.338;2022-12-11T12:56:16;26.55;;;15.68;;
26516;SDS011;14190;51.342;6.338;2022-12-11T12:58:45;25.05;;;14.13;;
26516;SDS011;14190;51.342;6.338;2022-12-11T13:01:21;30.23;;;16.73;;
26516;SDS011;14190;51.342;6.338;2022-12-11T13:04:01;30.82;;;15.98;;
26516;SDS011;14190;51.342;6.338;2022-12-11T13:06:37;32.80;;;15.73;;
26516;SDS011;14190;51.342;6.338;2022-12-11T13:11:38;25.80;;;13.53;;
26516;SDS011;14190;51.342;6.338;2022-12-11T13:14:07;35.45;;;21.20;;
26516;SDS011;14190;51.342;6.338;2022-12-11T13:16:38;24.45;;;15.08;;
26516;SDS011;14190;51.342;6.338;2022-12-11T13:22:01;24.23;;;12.90;;
26516;SDS011;14190;51.342;6.338;2022-12-11T13:24:24;24.30;;;13.25;;
26516;SDS011;14190;51.342;6.338;2022-12-11T13:26:51;21.95;;;12.20;;
26516;SDS011;14190;51.342;6.338;2022-12-11T13:29:29;24.35;;;13.50;;
26516;SDS011;14190;51.342;6.338;2022-12-11T13:31:59;23.18;;;12.30;;
26516;SDS011;14190;51.342;6.338;2022-12-11T13:34:28;25.43;;;14.25;;
26516;SDS011;14190;51.342;6.338;2022-12-11T13:36:58;23.73;;;15.20;;
26516;SDS011;14190;51.342;6.338;2022-12-11T13:39:26;26.42;;;12.40;;
26516;SDS011;14190;51.342;6.338;2022-12-11T13:41:56;24.65;;;12.80;;
26516;SDS011;14190;51.342;6.338;2022-12-11T13:44:25;23.70;;;13.03;;
26516;SDS011;14190;51.342;6.338;2022-12-11T13:46:53;25.77;;;13.83;;
26516;SDS011;14190;51.342;6.338;2022-12-11T13:49:25;22.62;;;13.10;;
26516;SDS011;14190;51.342;6.338;2022-12-11T13:51:54;23.47;;;11.78;;
26516;SDS011;14190;51.342;6.338;2022-12-11T13:54:22;19.73;;;12.23;;
26516;SDS011;14190;51.342;6.338;2022-12-11T13:56:57;51.08;;;23.22;;
26516;SDS011;14190;51.342;6.338;2022-12-11T13:59:26;23.77;;;13.50;;
26516;SDS011;14190;51.342;6.338;2022-12-11T14:01:54;27.45;;;15.25;;
26516;SDS011;14190;51.342;6.338;2022-12-11T14:04:22;21.97;;;13.68;;
26516;SDS011;14190;51.342;6.338;2022-12-11T14:06:50;24.87;;;13.40;;
26516;SDS011;14190;51.342;6.338;2022-12-11T14:09:18;24.70;;;12.95;;
26516;SDS011;14190;51.342;6.338;2022-12-11T14:11:46;24.25;;;13.28;;
26516;SDS011;14190;51.342;6.338;2022-12-11T14:14:26;22.48;;;12.43;;
26516;SDS011;14190;51.342;6.338;2022-12-11T14:16:50;24.35;;;13.48;;
26516;SDS011;14190;51.342;6.338;2022-12-11T14:19:18;23.73;;;13.25;;
26516;SDS011;14190;51.342;6.338;2022-12-11T14:22:00;22.55;;;13.05;;
26516;SDS011;14190;51.342;6.338;2022-12-11T14:24:28;25.57;;;13.75;;
26516;SDS011;14190;51.342;6.338;2022-12-11T14:26:56;26.70;;;13.43;;
26516;SDS011;14190;51.342;6.338;2022-12-11T14:29:25;26.35;;;12.93;;
26516;SDS011;14190;51.342;6.338;2022-12-11T14:31:53;33.38;;;16.65;;
26516;SDS011;14190;51.342;6.338;2022-12-11T14:34:37;24.77;;;14.33;;
26516;SDS011;14190;51.342;6.338;2022-12-11T14:37:05;40.75;;;21.10;;
26516;SDS011;14190;51.342;6.338;2022-12-11T14:39:36;27.42;;;14.55;;
26516;SDS011;14190;51.342;6.338;2022-12-11T14:42:03;28.60;;;16.27;;
26516;SDS011;14190;51.342;6.338;2022-12-11T14:44:44;32.67;;;18.57;;
26516;SDS011;14190;51.342;6.338;2022-12-11T14:47:03;46.58;;;21.62;;
26516;SDS011;14190;51.342;6.338;2022-12-11T14:52:15;24.87;;;12.85;;
26516;SDS011;14190;51.342;6.338;2022-12-11T14:54:40;36.08;;;18.50;;
26516;SDS011;14190;51.342;6.338;2022-12-11T14:57:07;43.75;;;21.33;;
26516;SDS011;14190;51.342;6.338;2022-12-11T14:59:37;29.60;;;15.18;;
26516;SDS011;14190;51.342;6.338;2022-12-11T15:02:25;26.60;;;13.25;;
26516;SDS011;14190;51.342;6.338;2022-12-11T15:05:01;26.93;;;15.18;;
26516;SDS011;14190;51.342;6.338;2022-12-11T15:07:29;28.83;;;14.83;;
26516;SDS011;14190;51.342;6.338;2022-12-11T15:09:58;28.05;;;16.32;;
26516;SDS011;14190;51.342;6.338;2022-12-11T15:12:25;27.37;;;15.30;;
26516;SDS011;14190;51.342;6.338;2022-12-11T15:14:54;28.35;;;17.45;;
26516;SDS011;14190;51.342;6.338;2022-12-11T15:17:22;32.17;;;16.57;;
26516;SDS011;14190;51.342;6.338;2022-12-11T15:19:59;30.55;;;16.25;;
26516;SDS011;14190;51.342;6.338;2022-12-11T15:22:22;36.60;;;20.65;;
26516;SDS011;14190;51.342;6.338;2022-12-11T15:24:52;32.45;;;16.90;;